Time;durP1;ratioP1;P1;durP2;ratioP2;P2;SDS_P1;SDS_P2;PMS_P1;PMS_P2;Temp;Humidity;BMP_temperature;BMP_pressure;BME280_temperature;BME280_humidity;BME280_pressure;Samples;Min_cycle;Max_cycle;Signal;HPM_P1;HPM_P2
2022/04/22 00:02:14;;;;;;;0.30;0.30;;;11.30;99.90;;;-141.50;100.00;62695.63;4982375;28;20635;-64
2022/04/22 00:04:40;;;;;;;0.30;0.30;;;11.20;99.90;;;-141.50;100.00;62695.63;4978032;28;21313;-65
2022/04/22 00:07:07;;;;;;;0.30;0.30;;;11.20;99.90;;;-141.50;100.00;62695.63;4992608;28;20618;-65
2022/04/22 00:09:34;;;;;;;0.30;0.30;;;11.10;99.90;;;-141.50;100.00;62695.63;4975589;28;20671;-64
2022/04/22 00:12:01;;;;;;;0.30;0.30;;;11.10;99.90;;;-141.50;100.00;62695.63;4972272;28;21280;-65
2022/04/22 00:14:28;;;;;;;0.30;0.23;;;11.00;99.90;;;-141.50;100.00;62695.63;4974061;28;20745;-61
2022/04/22 00:16:55;;;;;;;0.30;0.30;;;11.00;99.90;;;-141.50;100.00;62695.63;4992002;28;20680;-64
2022/04/22 00:19:22;;;;;;;0.30;0.30;;;11.00;99.90;;;-141.50;100.00;62695.63;4992463;28;20630;-64
2022/04/22 00:21:49;;;;;;;0.30;0.20;;;10.90;99.90;;;-141.50;100.00;62695.63;4991666;28;20602;-65
2022/04/22 00:24:16;;;;;;;0.30;0.20;;;10.90;99.90;;;-141.50;100.00;62695.63;4992035;28;20628;-65
2022/04/22 00:26:43;;;;;;;0.30;0.30;;;10.80;99.90;;;-141.50;100.00;62695.63;4993100;28;20629;-65
2022/04/22 00:29:11;;;;;;;0.30;0.20;;;10.80;99.90;;;-141.50;100.00;62695.63;4991295;28;20705;-66
2022/04/22 00:31:38;;;;;;;0.30;0.30;;;10.90;99.90;;;-141.50;100.00;62695.63;4992146;28;20713;-65
2022/04/22 00:34:05;;;;;;;0.30;0.20;;;10.90;99.90;;;-141.50;100.00;62695.63;4991040;28;20649;-65
2022/04/22 00:36:32;;;;;;;0.30;0.30;;;10.80;99.90;;;-141.50;100.00;62695.63;4990358;28;21292;-65
2022/04/22 00:39:01;;;;;;;0.30;0.20;;;10.80;99.90;;;-141.50;100.00;62695.63;4990155;28;20624;-66
2022/04/22 00:41:29;;;;;;;0.30;0.30;;;10.70;99.90;;;-141.50;100.00;62695.63;4985811;28;20737;-65
2022/04/22 00:43:56;;;;;;;0.30;0.30;;;10.70;99.90;;;-141.50;100.00;62695.63;4980514;28;21248;-65
2022/04/22 00:46:23;;;;;;;0.30;0.20;;;10.70;99.90;;;-141.50;100.00;62695.63;4978614;28;20643;-65
2022/04/22 00:48:50;;;;;;;0.30;0.20;;;10.60;99.90;;;-141.50;100.00;62695.63;4972289;28;20631;-65
2022/04/22 00:51:18;;;;;;;0.30;0.30;;;10.60;99.90;;;-141.50;100.00;62695.63;4997300;28;20641;-65
2022/04/22 00:53:49;;;;;;;0.30;0.30;;;10.50;99.90;;;-141.50;100.00;62695.63;5011725;28;20679;-66
2022/04/22 00:56:17;;;;;;;0.30;0.20;;;10.50;99.90;;;-141.50;100.00;62695.63;5012068;28;20757;-65
2022/04/22 00:58:47;;;;;;;0.30;0.30;;;10.60;99.90;;;-141.50;100.00;62695.63;4999808;28;20642;-66
2022/04/22 01:01:14;;;;;;;;;;;;;;;-141.50;100.00;62695.63;4991345;28;20894;-65
2022/04/22 01:09:51;;;;;;;0.30;0.30;;;10.40;99.90;;;-141.50;100.00;62695.63;5011283;23;20677;-68
2022/04/22 01:12:19;;;;;;;0.30;0.20;;;10.30;99.90;;;-141.50;100.00;62695.63;4993749;28;21229;-68
2022/04/22 01:14:46;;;;;;;0.30;0.20;;;10.10;99.90;;;-141.50;100.00;62695.63;4991949;28;20610;-67
2022/04/22 01:17:14;;;;;;;0.40;0.40;;;10.00;99.90;;;-141.50;100.00;62695.63;5007001;28;20629;-67
2022/04/22 01:19:41;;;;;;;0.30;0.30;;;10.00;99.90;;;-141.50;100.00;62695.63;5002918;28;20697;-67
2022/04/22 01:22:08;;;;;;;0.30;0.20;;;9.90;99.90;;;-141.50;100.00;62695.63;5003573;28;20641;-67
2022/04/22 01:24:37;;;;;;;0.30;0.30;;;9.90;99.90;;;-141.50;100.00;62695.63;5010276;28;20618;-67
2022/04/22 01:27:07;;;;;;;1.23;1.13;;;9.90;99.90;;;-141.50;100.00;62695.63;5005257;28;20641;-67
2022/04/22 01:29:34;;;;;;;0.30;0.20;;;9.80;99.90;;;-141.50;100.00;62695.63;4991990;28;21032;-68
2022/04/22 01:32:01;;;;;;;0.30;0.20;;;9.90;99.90;;;-141.50;100.00;62695.63;5002233;28;20736;-67
2022/04/22 01:34:28;;;;;;;0.30;0.20;;;9.90;99.90;;;-141.50;100.00;62695.63;5004937;28;20728;-68
2022/04/22 01:36:55;;;;;;;0.30;0.30;;;9.80;99.90;;;-141.50;100.00;62695.63;5009564;28;21272;-68
2022/04/22 01:39:23;;;;;;;0.30;0.20;;;9.80;99.90;;;-141.50;100.00;62695.63;5005904;28;20657;-68
2022/04/22 01:41:50;;;;;;;0.30;0.20;;;9.70;99.90;;;-141.50;100.00;62695.63;4990854;28;20625;-67
2022/04/22 01:44:17;;;;;;;0.30;0.23;;;9.60;99.90;;;-141.50;100.00;62695.63;4990495;28;20622;-68
2022/04/22 01:46:44;;;;;;;0.60;0.60;;;9.50;99.90;;;-141.50;100.00;62695.63;5007823;28;20640;-68
2022/04/22 01:49:11;;;;;;;0.30;0.20;;;9.50;99.90;;;-141.50;100.00;62695.63;5006316;28;21205;-68
2022/04/22 01:51:38;;;;;;;0.30;0.20;;;9.50;99.90;;;-141.50;100.00;62695.63;4990607;28;21225;-68
2022/04/22 01:54:05;;;;;;;2.73;0.93;;;9.60;99.90;;;-141.50;100.00;62695.63;4990236;28;20622;-67
2022/04/22 01:56:32;;;;;;;0.30;0.30;;;9.70;99.90;;;-141.50;100.00;62695.63;4999157;28;20673;-68
2022/04/22 01:59:00;;;;;;;0.30;0.30;;;9.60;99.90;;;-141.50;100.00;62695.63;5006417;28;20643;-68
2022/04/22 02:01:27;;;;;;;0.30;0.20;;;9.60;99.90;;;-141.50;100.00;62695.63;5004068;28;20631;-68
2022/04/22 02:03:54;;;;;;;0.30;0.20;;;9.50;99.90;;;-141.50;100.00;62695.63;5004280;28;20643;-67
2022/04/22 02:06:21;;;;;;;0.30;0.20;;;9.40;99.90;;;-141.50;100.00;62695.63;5005661;28;20683;-67
2022/04/22 02:08:47;;;;;;;0.30;0.20;;;9.40;99.90;;;-141.50;100.00;62695.63;4995324;28;21043;-67
2022/04/22 02:11:15;;;;;;;0.30;0.30;;;9.40;99.90;;;-141.50;100.00;62695.63;5001997;28;20609;-67
2022/04/22 02:13:42;;;;;;;0.70;0.70;;;9.40;99.90;;;-141.50;100.00;62695.63;5004891;28;20641;-67
2022/04/22 02:16:09;;;;;;;0.30;0.20;;;9.30;99.90;;;-141.50;100.00;62695.63;4988918;28;20673;-68
2022/04/22 02:18:37;;;;;;;0.30;0.30;;;9.30;99.90;;;-141.50;100.00;62695.63;4990258;28;20650;-67
2022/04/22 02:21:06;;;;;;;0.30;0.30;;;9.40;99.90;;;-141.50;100.00;62695.63;5000582;28;20645;-67
2022/04/22 02:23:33;;;;;;;0.30;0.30;;;9.40;99.90;;;-141.50;100.00;62695.63;4989003;28;20969;-67
2022/04/22 02:26:02;;;;;;;0.30;0.20;;;9.40;99.90;;;-141.50;100.00;62695.63;4992721;28;20651;-67
2022/04/22 02:28:32;;;;;;;0.30;0.20;;;9.30;99.90;;;-141.50;100.00;62695.63;5008927;28;20644;-68
2022/04/22 02:31:10;;;;;;;0.30;0.30;;;9.20;99.90;;;-141.50;100.00;62695.63;5008430;28;20637;-67
2022/04/22 02:33:39;;;;;;;0.30;0.30;;;9.10;99.90;;;-141.50;100.00;62695.63;4997645;28;20731;-68
2022/04/22 02:36:07;;;;;;;0.30;0.20;;;9.10;99.90;;;-141.50;100.00;62695.63;5001856;28;20653;-67
2022/04/22 02:38:35;;;;;;;1.40;1.30;;;9.00;99.90;;;-141.50;100.00;62695.63;5003569;28;20790;-68
2022/04/22 02:46:34;;;;;;;0.40;0.30;;;9.10;99.90;;;-141.50;100.00;62695.63;4993681;28;24556;-68
2022/04/22 02:49:01;;;;;;;0.70;0.70;;;9.10;99.90;;;-141.50;100.00;62695.63;4991250;28;24499;-67
2022/04/22 02:51:28;;;;;;;0.40;0.30;;;9.10;99.90;;;-141.50;100.00;62695.63;4999384;28;25093;-67
2022/04/22 02:53:56;;;;;;;0.40;0.30;;;9.00;99.90;;;-141.50;100.00;62695.63;5006135;28;24615;-66
2022/04/22 02:56:24;;;;;;;0.40;0.30;;;8.90;99.90;;;-141.50;100.00;62695.63;4992441;28;24457;-67
2022/04/22 02:58:52;;;;;;;1.40;0.80;;;9.00;99.90;;;-141.50;100.00;62695.63;4995894;28;24609;-67
2022/04/22 03:01:19;;;;;;;0.40;0.30;;;9.10;99.90;;;-141.50;100.00;62695.63;5008932;28;24444;-68
2022/04/22 03:03:46;;;;;;;0.60;0.60;;;9.10;99.90;;;-141.50;100.00;62695.63;5002701;28;24444;-67
2022/04/22 03:06:13;;;;;;;0.70;0.50;;;9.10;99.90;;;-141.50;100.00;62695.63;5004026;28;24543;-68
2022/04/22 03:08:40;;;;;;;0.40;0.40;;;9.10;99.90;;;-141.50;100.00;62695.63;5011236;28;24431;-67
2022/04/22 03:11:07;;;;;;;0.40;0.32;;;9.10;99.90;;;-141.50;100.00;62695.63;4998929;28;24536;-68
2022/04/22 03:13:34;;;;;;;1.13;0.47;;;9.10;99.90;;;-141.50;100.00;62695.63;4995436;28;24813;-68
2022/04/22 03:16:03;;;;;;;1.20;0.60;;;9.00;99.90;;;-141.50;100.00;62695.63;5002553;28;24459;-68
2022/04/22 03:18:30;;;;;;;0.30;0.30;;;9.00;99.90;;;-141.50;100.00;62695.63;4991806;28;24459;-68
2022/04/22 03:20:58;;;;;;;0.30;0.30;;;8.90;99.90;;;-141.50;100.00;62695.63;4992234;28;24878;-67
2022/04/22 03:23:25;;;;;;;0.70;0.60;;;8.90;99.90;;;-141.50;100.00;62695.63;4991586;28;24451;-66
2022/04/22 03:25:54;;;;;;;0.80;0.80;;;8.90;99.90;;;-141.50;100.00;62695.63;4998774;28;24990;-67
2022/04/22 03:28:22;;;;;;;0.50;0.50;;;8.80;99.90;;;-141.50;100.00;62695.63;5009336;28;25140;-67
2022/04/22 03:30:50;;;;;;;0.30;0.30;;;8.70;99.90;;;-141.50;100.00;62695.63;5010281;28;24426;-65
2022/04/22 03:33:19;;;;;;;0.40;0.40;;;8.60;99.90;;;-141.50;100.00;62695.63;4999025;28;24535;-68
2022/04/22 03:35:50;;;;;;;0.30;0.30;;;8.70;99.90;;;-141.50;100.00;62695.63;4992752;28;24460;-68
2022/04/22 03:38:22;;;;;;;0.30;0.30;;;8.70;99.90;;;-141.50;100.00;62695.63;5009191;28;24823;-68
2022/04/22 03:40:50;;;;;;;0.40;0.40;;;8.70;99.90;;;-141.50;100.00;62695.63;5009491;28;24962;-67
2022/04/22 03:43:19;;;;;;;0.30;0.30;;;8.60;99.90;;;-141.50;100.00;62695.63;5008797;28;24531;-68
2022/04/22 03:45:46;;;;;;;1.60;1.00;;;8.50;99.90;;;-141.50;100.00;62695.63;5004411;28;24448;-68
2022/04/22 03:48:16;;;;;;;0.45;0.45;;;8.50;99.90;;;-141.50;100.00;62695.63;5008999;28;24934;-68
2022/04/22 03:50:43;;;;;;;0.50;0.50;;;8.60;99.90;;;-141.50;100.00;62695.63;4999732;28;24444;-69
2022/04/22 03:53:11;;;;;;;0.30;0.30;;;8.60;99.90;;;-141.50;100.00;62695.63;4993756;28;24429;-68
2022/04/22 03:55:40;;;;;;;0.30;0.30;;;8.60;99.90;;;-141.50;100.00;62695.63;5004600;28;24468;-68
2022/04/22 03:58:11;;;;;;;0.30;0.30;;;8.60;99.90;;;-141.50;100.00;62695.63;5009525;28;25036;-68
2022/04/22 04:00:44;;;;;;;0.40;0.40;;;8.60;99.90;;;-141.50;100.00;62695.63;4999277;28;24535;-68
2022/04/22 04:03:13;;;;;;;2.30;1.10;;;8.60;99.90;;;-141.50;100.00;62695.63;5008675;28;24441;-68
2022/04/22 04:05:46;;;;;;;0.30;0.30;;;8.60;99.90;;;-141.50;100.00;62695.63;5003921;28;24560;-68
2022/04/22 04:08:13;;;;;;;0.30;0.30;;;8.60;99.90;;;-141.50;100.00;62695.63;4999184;28;24455;-68
2022/04/22 04:15:57;;;;;;;2.10;0.70;;;8.60;99.90;;;-141.50;100.00;62695.63;4989669;28;24966;-67
2022/04/22 04:16:29;;;;;;;0.50;0.50;;;8.50;99.90;;;-141.50;100.00;62695.63;5005294;28;24457;-68
2022/04/22 04:23:14;;;;;;;0.30;0.30;;;8.60;99.90;;;-141.50;100.00;62695.63;5000230;28;24548;-68
2022/04/22 04:24:29;;;;;;;0.40;0.40;;;8.60;99.90;;;-141.50;100.00;62695.63;5004844;28;24439;-68
2022/04/22 04:26:56;;;;;;;0.30;0.30;;;8.60;99.90;;;-141.50;100.00;62695.63;4990510;28;25077;-65
2022/04/22 04:29:23;;;;;;;0.30;0.30;;;8.70;99.90;;;-141.50;100.00;62695.63;4991638;28;24424;-68
2022/04/22 04:31:50;;;;;;;0.40;0.40;;;8.60;99.90;;;-141.50;100.00;62695.63;5002187;28;24440;-65
2022/04/22 04:34:17;;;;;;;0.30;0.30;;;8.70;99.90;;;-141.50;100.00;62695.63;5006758;28;24431;-68
2022/04/22 04:36:44;;;;;;;0.80;0.80;;;8.70;99.90;;;-141.50;100.00;62695.63;4989733;28;24452;-68
2022/04/22 04:39:11;;;;;;;0.30;0.30;;;8.80;99.90;;;-141.50;100.00;62695.63;4991544;28;24847;-68
2022/04/22 04:41:38;;;;;;;0.30;0.30;;;8.70;99.90;;;-141.50;100.00;62695.63;5008433;28;24897;-68
2022/04/22 04:44:06;;;;;;;0.30;0.30;;;8.80;99.90;;;-141.50;100.00;62695.63;5009254;28;24431;-68
2022/04/22 04:46:33;;;;;;;0.30;0.30;;;8.90;99.90;;;-141.50;100.00;62695.63;4992530;28;24446;-68
2022/04/22 04:49:01;;;;;;;0.50;0.50;;;8.90;99.90;;;-141.50;100.00;62695.63;4992945;28;24474;-67
2022/04/22 04:51:28;;;;;;;0.30;0.30;;;9.00;99.90;;;-141.50;100.00;62695.63;5009504;28;24519;-68
2022/04/22 04:53:55;;;;;;;0.50;0.50;;;9.20;99.90;;;-141.50;100.00;62695.63;4996944;28;24495;-68
2022/04/22 04:56:22;;;;;;;0.60;0.50;;;9.10;99.90;;;-141.50;100.00;62695.63;5002982;28;24463;-68
2022/04/22 04:58:49;;;;;;;0.40;0.40;;;9.20;99.90;;;-141.50;100.00;62695.63;4992222;28;24558;-68
2022/04/22 05:01:16;;;;;;;0.60;0.60;;;9.30;99.90;;;-141.50;100.00;62695.63;5000103;28;24435;-68
2022/04/22 05:03:43;;;;;;;0.43;0.38;;;9.30;99.90;;;-141.50;100.00;62695.63;4989739;28;24847;-68
2022/04/22 05:06:12;;;;;;;0.60;0.60;;;9.50;99.90;;;-141.50;100.00;62695.63;5008358;28;24971;-68
2022/04/22 05:08:39;;;;;;;0.40;0.30;;;9.60;99.90;;;-141.50;100.00;62695.63;4993892;28;24539;-68
2022/04/22 05:11:06;;;;;;;0.40;0.40;;;9.90;99.90;;;-141.50;100.00;62695.63;4997400;28;24452;-68
2022/04/22 05:13:33;;;;;;;0.70;0.60;;;10.20;99.90;;;-141.50;100.00;62695.63;5003114;28;24445;-68
2022/04/22 05:16:00;;;;;;;0.50;0.50;;;10.40;99.90;;;-141.50;100.00;62695.63;5002483;28;24822;-68
2022/04/22 05:18:27;;;;;;;0.80;0.70;;;10.80;99.90;;;-141.50;100.00;62695.63;5007970;28;24516;-68
2022/04/22 05:20:54;;;;;;;0.70;0.70;;;11.00;99.90;;;-141.50;100.00;62695.63;5003134;28;24539;-68
2022/04/22 05:23:22;;;;;;;2.97;1.30;;;11.20;99.90;;;-141.50;100.00;62695.63;4990364;28;24429;-68
2022/04/22 05:25:49;;;;;;;0.40;0.30;;;11.50;99.90;;;-141.50;100.00;62695.63;4987634;28;25014;-68
2022/04/22 05:28:16;;;;;;;0.40;0.40;;;11.60;99.90;;;-141.50;100.00;62695.63;4990760;28;24435;-68
2022/04/22 05:33:29;;;;;;;0.40;0.40;;;12.20;99.90;;;-141.50;100.00;62695.63;4990048;28;20673;-68
2022/04/22 05:35:57;;;;;;;0.30;0.30;;;12.40;99.90;;;-141.50;100.00;62695.63;4991696;28;20666;-65
2022/04/22 05:38:24;;;;;;;0.30;0.30;;;12.60;99.90;;;-141.50;100.00;62695.63;4991296;28;20657;-68
2022/04/22 05:40:51;;;;;;;0.30;0.30;;;12.80;99.90;;;-141.50;100.00;62695.63;4989632;28;20629;-67
2022/04/22 05:43:18;;;;;;;0.30;0.20;;;12.90;99.90;;;-141.50;100.00;62695.63;4990621;28;20613;-68
2022/04/22 05:45:45;;;;;;;12.07;2.33;;;13.00;99.90;;;-141.50;100.00;62695.63;5000732;28;21228;-68
2022/04/22 05:48:12;;;;;;;0.30;0.30;;;13.20;99.90;;;-141.50;100.00;62695.63;5010519;28;20668;-66
2022/04/22 05:50:38;;;;;;;0.30;0.20;;;13.30;99.90;;;-141.50;100.00;62695.63;4991694;28;20741;-68
2022/04/22 05:53:05;;;;;;;0.30;0.30;;;13.70;99.90;;;-141.50;100.00;62695.63;4990569;28;20642;-68
2022/04/22 05:55:33;;;;;;;0.30;0.30;;;14.10;99.90;;;-141.50;100.00;62695.63;4988091;28;20646;-68
2022/04/22 05:58:00;;;;;;;0.30;0.30;;;14.50;99.90;;;-141.50;100.00;62695.63;4990567;28;20658;-68
2022/04/22 06:00:32;;;;;;;0.30;0.20;;;14.70;99.90;;;-141.50;100.00;62695.63;5000953;28;21020;-68
2022/04/22 06:03:01;;;;;;;0.30;0.20;;;14.90;99.90;;;-141.50;100.00;62695.63;5010277;28;20649;-68
2022/04/22 06:05:28;;;;;;;0.30;0.20;;;15.50;99.90;;;-141.50;100.00;62695.63;4996056;28;20648;-69
2022/04/22 06:10:41;;;;;;;0.60;0.60;;;16.60;98.80;;;-141.50;100.00;62695.63;4995445;28;21015;-68
2022/04/22 06:13:09;;;;;;;1.43;1.43;;;17.10;97.30;;;-141.50;100.00;62695.63;4993771;28;20684;-68
2022/04/22 06:15:36;;;;;;;0.30;0.30;;;17.20;96.10;;;-141.50;100.00;62695.63;4991042;28;20642;-68
2022/04/22 06:18:03;;;;;;;0.30;0.30;;;17.90;95.00;;;-141.50;100.00;62695.63;4993969;28;20765;-68
2022/04/22 06:20:30;;;;;;;0.30;0.30;;;18.40;93.40;;;-141.50;100.00;62695.63;4993053;28;20718;-67
2022/04/22 06:22:58;;;;;;;0.50;0.50;;;19.00;91.50;;;-141.50;100.00;62695.63;5009472;28;21219;-68
2022/04/22 06:25:25;;;;;;;0.30;0.30;;;19.50;90.10;;;-141.50;100.00;62695.63;4996351;28;20721;-69
2022/04/22 06:27:52;;;;;;;0.30;0.30;;;20.00;85.20;;;-141.50;100.00;62695.63;4991370;28;21091;-68
2022/04/22 06:30:23;;;;;;;0.60;0.60;;;20.80;81.10;;;-141.50;100.00;62695.63;4997864;28;21281;-69
2022/04/22 06:32:53;;;;;;;0.40;0.40;;;21.30;78.20;;;-141.50;100.00;62695.63;4994924;28;20689;-65
2022/04/22 06:35:21;;;;;;;0.40;0.40;;;21.50;75.20;;;-141.50;100.00;62695.63;5001735;28;20626;-68
2022/04/22 06:37:51;;;;;;;0.30;0.30;;;21.40;72.50;;;-141.50;100.00;62695.63;5009871;28;22294;-68
2022/04/22 06:45:53;;;;;;;0.30;0.30;;;22.20;68.80;;;-141.50;100.00;62695.63;4993522;28;21261;-66
2022/04/22 06:48:21;;;;;;;0.30;0.30;;;23.40;65.30;;;-141.50;100.00;62695.63;5018498;28;20648;-69
2022/04/22 06:51:09;;;;;;;0.30;0.30;;;24.10;62.20;;;-141.50;100.00;62695.63;4993823;28;20783;-69
2022/04/22 06:53:37;;;;;;;0.87;0.87;;;24.90;58.80;;;-141.50;100.00;62695.63;4997702;28;20625;-68
2022/04/22 06:56:06;;;;;;;0.30;0.30;;;25.30;56.50;;;-141.50;100.00;62695.63;5013711;28;20716;-68
2022/04/22 06:58:40;;;;;;;0.40;0.40;;;25.60;56.00;;;-141.50;100.00;62695.63;5013043;28;21210;-68
2022/04/22 07:01:08;;;;;;;0.50;0.50;;;26.60;53.50;;;-141.50;100.00;62695.63;5011906;28;20688;-68
2022/04/22 07:03:56;;;;;;;0.40;0.40;;;27.60;51.70;;;-141.50;100.00;62695.63;4992905;28;20662;-68
2022/04/22 07:06:24;;;;;;;0.80;0.80;;;27.80;49.90;;;-141.50;100.00;62695.63;4995883;28;21045;-68
2022/04/22 07:08:51;;;;;;;1.23;1.10;;;27.70;49.80;;;-141.50;100.00;62695.63;4992049;28;20669;-67
2022/04/22 07:11:28;;;;;;;0.60;0.60;;;27.80;49.50;;;-141.50;100.00;62695.63;4993528;28;20614;-68
2022/04/22 07:13:59;;;;;;;0.40;0.40;;;28.10;49.00;;;-141.50;100.00;62695.63;4990157;28;20633;-67
2022/04/22 07:16:27;;;;;;;0.50;0.50;;;28.20;48.80;;;-141.50;100.00;62695.63;4992624;28;20641;-68
2022/04/22 07:18:56;;;;;;;0.40;0.40;;;28.40;47.90;;;-141.50;100.00;62695.63;4998814;28;20660;-68
2022/04/22 07:21:24;;;;;;;0.40;0.40;;;28.60;47.30;;;-141.50;100.00;62695.63;5001328;28;20645;-68
2022/04/22 07:23:52;;;;;;;1.83;0.90;;;28.70;47.30;;;-141.50;100.00;62695.63;5006910;28;20637;-69
2022/04/22 07:26:20;;;;;;;0.40;0.40;;;28.00;47.40;;;-141.50;100.00;62695.63;5002352;28;20625;-68
2022/04/22 07:28:49;;;;;;;0.30;0.30;;;27.60;47.60;;;-141.50;100.00;62695.63;4993920;28;21255;-68
2022/04/22 07:31:20;;;;;;;0.30;0.30;;;26.80;48.30;;;-141.50;100.00;62695.63;4993003;28;20692;-69
2022/04/22 07:33:52;;;;;;;0.30;0.30;;;27.10;48.70;;;-141.50;100.00;62695.63;4993994;28;21304;-68
2022/04/22 07:36:19;;;;;;;0.30;0.30;;;27.60;48.10;;;-141.50;100.00;62695.63;4990490;28;20618;-69
2022/04/22 07:38:47;;;;;;;0.30;0.30;;;28.00;47.40;;;-141.50;100.00;62695.63;4996594;28;20655;-66
2022/04/22 07:41:18;;;;;;;0.60;0.60;;;28.20;47.20;;;-141.50;100.00;62695.63;4996700;28;21114;-69
2022/04/22 07:46:48;;;;;;;1.57;1.27;;;28.90;46.10;;;-141.50;100.00;62695.63;4992280;28;20746;-69
2022/04/22 07:49:17;;;;;;;0.30;0.30;;;28.70;45.70;;;-141.50;100.00;62695.63;4991962;28;21038;-69
2022/04/22 07:51:44;;;;;;;0.33;0.33;;;27.80;46.40;;;-141.50;100.00;62695.63;4992078;28;21258;-69
2022/04/22 07:54:14;;;;;;;0.30;0.30;;;28.20;46.20;;;-141.50;100.00;62695.63;4993125;28;20621;-67
2022/04/22 07:56:42;;;;;;;0.50;0.50;;;28.40;46.20;;;-141.50;100.00;62695.63;5003533;28;20741;-69
2022/04/22 07:59:11;;;;;;;0.30;0.30;;;28.60;45.30;;;-141.50;100.00;62695.63;5011827;28;20646;-69
2022/04/22 08:01:38;;;;;;;1.47;1.37;;;29.10;45.00;;;-141.50;100.00;62695.63;5008998;28;20684;-69
2022/04/22 08:04:05;;;;;;;0.40;0.30;;;29.80;44.20;;;-141.50;100.00;62695.63;5011030;28;20625;-69
2022/04/22 08:06:33;;;;;;;1.33;1.07;;;29.60;44.20;;;-141.50;100.00;62695.63;5009781;28;20633;-69
2022/04/22 08:09:00;;;;;;;0.50;0.50;;;29.60;43.90;;;-141.50;100.00;62695.63;4990918;28;20676;-69
2022/04/22 08:11:27;;;;;;;0.40;0.30;;;29.50;44.00;;;-141.50;100.00;62695.63;5007527;28;20637;-69
2022/04/22 08:13:55;;;;;;;0.40;0.30;;;30.30;43.30;;;-141.50;100.00;62695.63;4991218;28;20642;-68
2022/04/22 08:16:23;;;;;;;0.60;0.60;;;30.70;42.60;;;-141.50;100.00;62695.63;5006105;28;20695;-69
2022/04/22 08:18:50;;;;;;;0.30;0.30;;;31.10;42.30;;;-141.50;100.00;62695.63;4991973;28;20684;-68
2022/04/22 08:21:17;;;;;;;1.37;1.03;;;31.50;42.10;;;-141.50;100.00;62695.63;4991991;28;20610;-70
2022/04/22 08:23:46;;;;;;;0.40;0.40;;;31.30;41.60;;;-141.50;100.00;62695.63;4998772;28;21495;-69
2022/04/22 08:26:14;;;;;;;0.77;0.77;;;31.50;41.40;;;-141.50;100.00;62695.63;4991816;28;20614;-69
2022/04/22 08:28:41;;;;;;;0.40;0.40;;;31.60;40.80;;;-141.50;100.00;62695.63;4999623;28;20749;-70
2022/04/22 08:31:08;;;;;;;0.40;0.40;;;31.40;41.20;;;-141.50;100.00;62695.63;4991448;28;20628;-69
2022/04/22 08:33:35;;;;;;;0.30;0.30;;;31.10;40.20;;;-141.50;100.00;62695.63;4996845;28;20657;-70
2022/04/22 08:36:02;;;;;;;0.30;0.30;;;31.90;39.90;;;-141.50;100.00;62695.63;4996440;28;21266;-69
2022/04/22 08:38:29;;;;;;;0.40;0.40;;;31.80;39.40;;;-141.50;100.00;62695.63;4991767;28;20713;-69
2022/04/22 08:40:56;;;;;;;0.90;0.90;;;32.10;39.20;;;-141.50;100.00;62695.63;4991786;28;20645;-69
2022/04/22 08:43:24;;;;;;;0.50;0.50;;;32.50;39.30;;;-141.50;100.00;62695.63;4991921;28;20624;-65
2022/04/22 08:45:51;;;;;;;0.40;0.30;;;32.80;38.60;;;-141.50;100.00;62695.63;4997813;28;20633;-69
2022/04/22 08:51:08;;;;;;;0.30;0.30;;;33.60;37.70;;;-141.50;100.00;62695.63;4992694;28;21263;-69
2022/04/22 08:53:37;;;;;;;0.30;0.30;;;34.10;37.30;;;-141.50;100.00;62695.63;4999656;28;20765;-69
2022/04/22 08:56:07;;;;;;;2.23;0.87;;;34.50;37.20;;;-141.50;100.00;62695.63;5000399;28;20640;-69
2022/04/22 08:58:36;;;;;;;0.40;0.40;;;34.00;36.20;;;-141.50;100.00;62695.63;5010974;28;20673;-70
2022/04/22 09:01:03;;;;;;;1.57;1.47;;;33.20;37.40;;;-141.50;100.00;62695.63;5008454;28;20732;-69
2022/04/22 09:03:30;;;;;;;0.40;0.30;;;33.80;37.30;;;-141.50;100.00;62695.63;4998728;28;20629;-69
2022/04/22 09:05:57;;;;;;;0.40;0.40;;;35.40;36.70;;;-141.50;100.00;62695.63;5010430;28;20716;-65
2022/04/22 09:08:28;;;;;;;1.70;1.60;;;35.80;36.00;;;-141.50;100.00;62695.63;4989646;28;20669;-70
2022/04/22 09:10:57;;;;;;;0.40;0.40;;;36.40;35.30;;;-141.50;100.00;62695.63;4990550;28;20618;-68
2022/04/22 09:13:27;;;;;;;0.40;0.40;;;35.00;35.40;;;-141.50;100.00;62695.63;4996439;28;20649;-67
2022/04/22 09:15:55;;;;;;;0.40;0.40;;;35.70;35.90;;;-141.50;100.00;62695.63;5009295;28;21205;-69
2022/04/22 09:18:38;;;;;;;0.40;0.40;;;36.60;35.20;;;-141.50;100.00;62695.63;5000192;28;20688;-69
2022/04/22 09:21:06;;;;;;;0.40;0.40;;;37.00;34.80;;;-141.50;100.00;62695.63;5010407;28;21155;-70
2022/04/22 09:23:35;;;;;;;0.40;0.40;;;37.70;34.60;;;-141.50;100.00;62695.63;4998566;28;21235;-69
2022/04/22 09:26:07;;;;;;;0.40;0.40;;;37.70;34.30;;;-141.50;100.00;62695.63;4996644;28;20703;-69
2022/04/22 09:28:35;;;;;;;2.33;2.20;;;38.50;33.90;;;-141.50;100.00;62695.63;4996224;28;20658;-70
2022/04/22 09:31:06;;;;;;;0.50;0.50;;;38.80;33.80;;;-141.50;100.00;62695.63;4986383;28;20643;-70
2022/04/22 09:33:42;;;;;;;0.40;0.40;;;39.20;33.20;;;-141.50;100.00;62695.63;5009827;28;21199;-69
2022/04/22 09:45:08;;;;;;;0.40;0.40;;;40.50;32.00;;;-141.50;100.00;62695.63;5007065;28;20633;-69
2022/04/22 09:47:37;;;;;;;0.40;0.40;;;41.40;31.60;;;-141.50;100.00;62695.63;5024501;28;20713;-70
2022/04/22 09:50:10;;;;;;;0.40;0.40;;;41.20;31.60;;;-141.50;100.00;62695.63;4992990;28;20650;-69
2022/04/22 09:52:46;;;;;;;0.40;0.40;;;40.00;31.80;;;-141.50;100.00;62695.63;4999540;28;21009;-69
2022/04/22 09:55:15;;;;;;;0.70;0.70;;;39.20;32.00;;;-141.50;100.00;62695.63;4989983;28;20987;-69
2022/04/22 09:57:58;;;;;;;0.40;0.40;;;38.60;32.40;;;-141.50;100.00;62695.63;4997415;28;20662;-69
2022/04/22 10:00:30;;;;;;;0.40;0.40;;;39.00;32.10;;;-141.50;100.00;62695.63;4993097;28;20638;-70
2022/04/22 10:02:58;;;;;;;0.40;0.40;;;39.60;32.10;;;-141.50;100.00;62695.63;4989659;28;20618;-69
2022/04/22 10:05:31;;;;;;;0.40;0.40;;;39.60;31.80;;;-141.50;100.00;62695.63;5002184;28;20802;-70
2022/04/22 10:08:02;;;;;;;0.40;0.40;;;38.30;32.20;;;-141.50;100.00;62695.63;5004343;28;21760;-67
2022/04/22 10:10:35;;;;;;;0.60;0.60;;;37.70;32.40;;;-141.50;100.00;62695.63;5009936;28;20629;-68
2022/04/22 10:13:04;;;;;;;0.40;0.40;;;37.50;32.90;;;-141.50;100.00;62695.63;5009671;28;20726;-69
2022/04/22 10:15:37;;;;;;;0.40;0.40;;;37.10;32.70;;;-141.50;100.00;62695.63;5004059;28;20641;-69
2022/04/22 10:18:07;;;;;;;0.40;0.40;;;36.50;33.30;;;-141.50;100.00;62695.63;5009592;28;21226;-68
2022/04/22 10:20:36;;;;;;;0.40;0.40;;;36.30;33.70;;;-141.50;100.00;62695.63;5003372;28;20648;-69
2022/04/22 10:23:03;;;;;;;3.23;1.23;;;35.30;34.20;;;-141.50;100.00;62695.63;4995267;28;21232;-69
2022/04/22 10:25:31;;;;;;;0.40;0.30;;;34.30;34.80;;;-141.50;100.00;62695.63;4989077;28;20634;-69
2022/04/22 10:28:03;;;;;;;0.40;0.40;;;33.80;35.10;;;-141.50;100.00;62695.63;4990545;28;20595;-69
2022/04/22 10:30:32;;;;;;;0.40;0.40;;;32.80;35.90;;;-141.50;100.00;62695.63;5005897;28;20625;-69
2022/04/22 10:33:00;;;;;;;0.87;0.83;;;31.50;36.90;;;-141.50;100.00;62695.63;4988313;28;21035;-69
2022/04/22 10:35:27;;;;;;;0.40;0.30;;;29.40;38.70;;;-141.50;100.00;62695.63;5000150;28;21214;-69
2022/04/22 10:37:54;;;;;;;0.40;0.30;;;27.10;40.80;;;-141.50;100.00;62695.63;4992694;28;20758;-67
2022/04/22 10:40:26;;;;;;;0.40;0.30;;;25.50;42.50;;;-141.50;100.00;62695.63;5009259;28;20989;-69
2022/04/22 10:42:58;;;;;;;0.40;0.30;;;24.20;44.30;;;-141.50;100.00;62695.63;5007571;28;21041;-67
2022/04/22 10:48:26;;;;;;;0.83;0.83;;;23.00;46.60;;;-141.50;100.00;62695.63;4993468;28;20654;-69
2022/04/22 10:50:58;;;;;;;0.93;0.93;;;22.70;47.10;;;-141.50;100.00;62695.63;5000635;28;20703;-68
2022/04/22 10:53:27;;;;;;;0.40;0.30;;;22.70;47.30;;;-141.50;100.00;62695.63;5003917;28;20621;-67
2022/04/22 10:56:26;;;;;;;0.40;0.30;;;22.40;46.90;;;-141.50;100.00;62695.63;4989619;28;21253;-69